createdAt,value
2023-05-13T00:00:16.323Z,14.20
2023-05-13T00:02:43.318Z,14.50
2023-05-13T00:05:10.212Z,13.50
2023-05-13T00:07:38.636Z,14.60
2023-05-13T00:10:05.805Z,14.60
2023-05-13T00:12:32.716Z,13.50
2023-05-13T00:14:59.566Z,16.60
2023-05-13T00:17:26.528Z,14.00
2023-05-13T00:19:53.346Z,14.00
2023-05-13T00:22:20.175Z,13.50
2023-05-13T00:24:47.124Z,13.60
2023-05-13T00:27:14.264Z,12.40
2023-05-13T00:29:41.103Z,12.10
2023-05-13T00:32:08.135Z,12.40
2023-05-13T00:34:35.293Z,11.80
2023-05-13T00:37:02.147Z,11.80
2023-05-13T00:39:29.788Z,12.10
2023-05-13T00:41:56.706Z,13.20
2023-05-13T00:44:23.669Z,13.30
2023-05-13T00:46:50.634Z,14.40
2023-05-13T00:49:17.466Z,13.60
2023-05-13T00:51:44.385Z,12.60
2023-05-13T00:54:11.522Z,13.50
2023-05-13T00:56:39.152Z,12.40
2023-05-13T00:59:06.010Z,12.00
2023-05-13T01:01:47.830Z,12.50
2023-05-13T01:04:20.733Z,11.80
2023-05-13T01:06:47.648Z,13.10
2023-05-13T01:09:36.452Z,12.60
2023-05-13T01:12:08.446Z,11.70
2023-05-13T01:14:37.193Z,12.20
2023-05-13T01:17:18.489Z,12.10
2023-05-13T01:19:46.968Z,12.00
2023-05-13T01:22:14.320Z,12.60
2023-05-13T01:24:41.430Z,12.60
2023-05-13T01:27:08.552Z,12.10
2023-05-13T01:29:35.622Z,12.40
2023-05-13T01:32:02.660Z,13.30
2023-05-13T01:34:29.589Z,12.80
2023-05-13T01:36:56.470Z,11.40
2023-05-13T01:39:23.895Z,12.40
2023-05-13T01:41:51.994Z,12.00
2023-05-13T01:44:18.951Z,12.10
2023-05-13T01:46:46.804Z,12.10
2023-05-13T01:49:13.776Z,12.00
2023-05-13T01:51:41.505Z,12.40
2023-05-13T01:54:08.405Z,12.70
2023-05-13T01:56:36.672Z,12.10
2023-05-13T01:59:03.566Z,12.40
2023-05-13T02:01:30.553Z,11.40
2023-05-13T02:03:57.984Z,12.10
2023-05-13T02:06:24.935Z,12.50
2023-05-13T02:08:51.844Z,12.60
2023-05-13T02:11:18.895Z,12.60
2023-05-13T02:13:46.082Z,11.20
2023-05-13T02:16:19.791Z,12.40
2023-05-13T02:18:46.674Z,12.80
2023-05-13T02:21:13.592Z,11.70
2023-05-13T02:23:40.484Z,12.70
2023-05-13T02:26:07.313Z,13.10
2023-05-13T02:28:34.130Z,12.00
2023-05-13T02:31:01.033Z,12.30
2023-05-13T02:33:28.070Z,13.20
2023-05-13T02:35:55.163Z,12.10
2023-05-13T02:38:22.080Z,12.80
2023-05-13T02:40:49.347Z,12.00
2023-05-13T02:43:16.237Z,11.60
2023-05-13T02:45:47.874Z,11.90
2023-05-13T02:48:16.158Z,12.60
2023-05-13T02:50:43.026Z,12.30
2023-05-13T02:53:10.246Z,12.40
2023-05-13T02:55:39.361Z,12.80
2023-05-13T02:58:06.411Z,11.40
2023-05-13T03:00:33.761Z,12.30
2023-05-13T03:03:01.198Z,12.10
2023-05-13T03:05:29.749Z,12.10
2023-05-13T03:07:58.052Z,11.90
2023-05-13T03:10:26.092Z,11.90
2023-05-13T03:12:53.008Z,11.20
2023-05-13T03:15:20.008Z,13.10
2023-05-13T03:17:46.929Z,13.20
2023-05-13T03:20:14.013Z,12.60
2023-05-13T03:22:41.067Z,13.30
2023-05-13T03:25:08.257Z,13.30
2023-05-13T03:27:41.578Z,13.10
2023-05-13T03:30:09.172Z,12.50
2023-05-13T03:32:42.284Z,12.00
2023-05-13T03:35:09.406Z,11.70
2023-05-13T03:37:37.610Z,11.90
2023-05-13T03:40:05.302Z,12.20
2023-05-13T03:42:32.713Z,12.40
2023-05-13T03:45:00.954Z,11.90
2023-05-13T03:47:28.052Z,12.60
2023-05-13T03:49:57.709Z,12.50
2023-05-13T03:52:24.736Z,11.40
2023-05-13T03:54:51.633Z,10.60
2023-05-13T03:57:18.532Z,11.80
2023-05-13T03:59:45.560Z,11.20
2023-05-13T04:02:13.038Z,10.90
2023-05-13T04:04:39.960Z,10.30
2023-05-13T04:07:06.827Z,9.30
2023-05-13T04:09:33.717Z,9.30
2023-05-13T04:12:03.636Z,10.50
2023-05-13T04:14:31.101Z,9.50
2023-05-13T04:16:58.126Z,9.90
2023-05-13T04:19:25.256Z,8.60
2023-05-13T04:21:53.505Z,9.40
2023-05-13T04:24:23.428Z,9.20
2023-05-13T04:26:50.302Z,9.10
2023-05-13T04:29:18.353Z,9.30
2023-05-13T04:31:46.045Z,9.20
2023-05-13T04:34:13.424Z,8.70
2023-05-13T04:36:40.609Z,9.40
2023-05-13T04:39:08.877Z,8.50
2023-05-13T04:41:35.821Z,8.70
2023-05-13T04:44:02.998Z,8.80
2023-05-13T04:46:30.044Z,8.40
2023-05-13T04:48:57.021Z,8.70
2023-05-13T04:51:24.746Z,8.60
2023-05-13T04:53:52.334Z,8.40
2023-05-13T04:56:19.962Z,8.80
2023-05-13T04:58:46.849Z,8.40
2023-05-13T05:01:14.979Z,8.80
2023-05-13T05:03:42.119Z,8.80
2023-05-13T05:06:09.186Z,9.20
2023-05-13T05:08:36.224Z,9.10
2023-05-13T05:11:03.170Z,8.70
2023-05-13T05:13:31.878Z,9.20
2023-05-13T05:15:59.402Z,8.20
2023-05-13T05:18:26.469Z,7.90
2023-05-13T05:20:53.817Z,8.20
2023-05-13T05:23:21.746Z,8.00
2023-05-13T05:26:00.864Z,8.50
2023-05-13T05:28:40.358Z,8.20
2023-05-13T05:31:07.593Z,8.50
2023-05-13T05:33:34.737Z,8.10
2023-05-13T05:36:01.782Z,7.80
2023-05-13T05:38:29.369Z,8.40
2023-05-13T05:40:57.747Z,8.00
2023-05-13T05:43:24.898Z,8.60
2023-05-13T05:45:52.544Z,8.90
2023-05-13T05:48:20.301Z,8.40
2023-05-13T05:50:47.582Z,7.80
2023-05-13T05:53:18.293Z,7.50
2023-05-13T05:55:45.516Z,8.40
2023-05-13T05:58:15.229Z,8.00
2023-05-13T06:00:42.478Z,11.20
2023-05-13T06:03:09.508Z,8.80
2023-05-13T06:05:36.479Z,7.70
2023-05-13T06:08:03.393Z,7.60
2023-05-13T06:10:30.410Z,8.00
2023-05-13T06:12:58.053Z,8.00
2023-05-13T06:15:25.029Z,8.70
2023-05-13T06:17:51.920Z,7.30
2023-05-13T06:20:18.959Z,8.20
2023-05-13T06:22:45.958Z,7.30
2023-05-13T06:25:12.870Z,7.10
2023-05-13T06:27:41.002Z,8.20
2023-05-13T06:30:08.055Z,6.50
2023-05-13T06:32:34.983Z,6.60
2023-05-13T06:35:01.994Z,6.50
2023-05-13T06:37:28.869Z,6.70
2023-05-13T06:39:55.760Z,5.70
2023-05-13T06:42:23.704Z,5.30
2023-05-13T06:44:58.214Z,5.60
2023-05-13T06:47:28.301Z,5.80
2023-05-13T06:49:55.212Z,5.60
2023-05-13T06:52:22.148Z,5.70
2023-05-13T06:54:49.045Z,5.90
2023-05-13T06:57:15.891Z,5.50
2023-05-13T06:59:44.509Z,5.60
2023-05-13T07:02:12.104Z,5.40
2023-05-13T07:04:39.346Z,6.20
2023-05-13T07:07:06.236Z,5.80
2023-05-13T07:09:34.670Z,5.80
2023-05-13T07:12:01.946Z,5.70
2023-05-13T07:14:28.912Z,5.90
2023-05-13T07:16:55.935Z,7.10
2023-05-13T07:19:22.842Z,6.30
2023-05-13T07:21:49.786Z,6.40
2023-05-13T07:24:17.266Z,6.20
2023-05-13T07:26:44.138Z,6.00
2023-05-13T07:29:11.010Z,7.30
2023-05-13T07:31:38.010Z,8.10
2023-05-13T07:34:05.011Z,6.70
2023-05-13T07:36:31.939Z,7.50
2023-05-13T07:41:25.748Z,8.20
2023-05-13T07:43:52.752Z,7.70
2023-05-13T07:46:19.741Z,9.60
2023-05-13T07:48:46.691Z,7.40
2023-05-13T07:51:13.592Z,5.00
2023-05-13T07:53:40.471Z,7.40
2023-05-13T07:56:07.931Z,5.60
2023-05-13T07:58:34.808Z,6.20
2023-05-13T08:01:01.768Z,5.60
2023-05-13T08:03:28.690Z,4.90
2023-05-13T08:05:55.706Z,4.20
2023-05-13T08:08:22.701Z,2.80
2023-05-13T08:10:49.537Z,2.70
2023-05-13T08:13:16.410Z,1.90
2023-05-13T08:15:43.396Z,1.80
2023-05-13T08:18:10.308Z,2.40
2023-05-13T08:20:37.413Z,2.00
2023-05-13T08:23:04.344Z,2.10
2023-05-13T08:25:31.190Z,2.40
2023-05-13T08:27:58.124Z,1.50
2023-05-13T08:30:25.112Z,1.70
2023-05-13T08:32:51.941Z,1.90
2023-05-13T08:35:19.054Z,1.60
2023-05-13T08:37:45.973Z,2.00
2023-05-13T08:40:12.875Z,1.90
2023-05-13T08:42:42.663Z,5.00
2023-05-13T08:45:10.396Z,1.60
2023-05-13T08:47:40.740Z,1.80
2023-05-13T08:50:07.775Z,1.80
2023-05-13T08:52:34.681Z,2.50
2023-05-13T08:55:01.826Z,2.80
2023-05-13T08:57:28.709Z,1.90
2023-05-13T08:59:55.722Z,2.30
2023-05-13T09:02:23.023Z,2.10
2023-05-13T09:04:51.371Z,2.10
2023-05-13T09:07:18.630Z,3.70
2023-05-13T09:09:45.530Z,2.10
2023-05-13T09:12:12.584Z,2.40
2023-05-13T09:14:40.083Z,2.70
2023-05-13T09:17:07.902Z,2.00
2023-05-13T09:19:35.717Z,2.50
2023-05-13T09:22:02.893Z,2.20
2023-05-13T09:24:29.815Z,1.90
2023-05-13T09:26:56.683Z,2.10
2023-05-13T09:29:29.451Z,2.20
2023-05-13T09:31:58.093Z,2.70
2023-05-13T09:34:28.044Z,2.30
2023-05-13T09:36:59.217Z,2.00
2023-05-13T09:39:26.749Z,2.00
2023-05-13T09:41:53.583Z,2.20
2023-05-13T09:44:21.638Z,2.20
2023-05-13T09:46:48.647Z,2.10
2023-05-13T09:49:15.550Z,2.10
2023-05-13T09:51:42.823Z,2.20
2023-05-13T09:54:09.842Z,2.40
2023-05-13T09:56:36.724Z,2.10
2023-05-13T09:59:03.851Z,2.40
2023-05-13T10:01:31.032Z,1.70
2023-05-13T10:03:59.623Z,2.10
2023-05-13T10:08:16.748Z,1.90
2023-05-13T10:10:46.483Z,2.20
2023-05-13T10:13:16.920Z,1.90
2023-05-13T10:15:47.226Z,2.30
2023-05-13T10:18:14.194Z,2.20
2023-05-13T10:20:41.111Z,2.90
2023-05-13T10:23:07.980Z,2.90
2023-05-13T10:25:34.844Z,2.50
2023-05-13T10:28:02.149Z,1.90
2023-05-13T10:30:29.773Z,2.30
2023-05-13T10:32:56.716Z,1.90
2023-05-13T10:35:23.680Z,2.10
2023-05-13T10:37:50.518Z,2.30
2023-05-13T10:40:30.078Z,2.10
2023-05-13T10:43:17.271Z,2.20
2023-05-13T10:45:44.751Z,2.40
2023-05-13T10:48:11.961Z,2.30
2023-05-13T10:50:39.233Z,2.80
2023-05-13T10:53:10.727Z,2.60
2023-05-13T10:55:41.399Z,3.30
2023-05-13T10:58:09.742Z,2.80
2023-05-13T11:00:37.490Z,2.40
2023-05-13T11:03:11.889Z,2.40
2023-05-13T11:05:43.732Z,2.30
2023-05-13T11:08:10.867Z,3.30
2023-05-13T11:10:37.700Z,7.80
2023-05-13T11:13:07.985Z,4.90
2023-05-13T11:16:04.437Z,2.90
2023-05-13T11:18:31.722Z,8.00
2023-05-13T11:21:04.382Z,10.80
2023-05-13T11:23:32.913Z,2.70
2023-05-13T11:26:12.035Z,2.50
2023-05-13T11:28:55.609Z,2.60
2023-05-13T11:31:23.176Z,7.20
2023-05-13T11:34:19.626Z,14.50
2023-05-13T11:36:46.628Z,3.50
2023-05-13T11:39:14.476Z,2.30
2023-05-13T11:41:42.604Z,2.30
2023-05-13T11:44:10.497Z,7.20
2023-05-13T11:46:37.511Z,2.30
2023-05-13T11:49:07.154Z,3.20
2023-05-13T11:51:34.397Z,2.00
2023-05-13T11:54:02.175Z,2.50
2023-05-13T11:56:29.168Z,1.90
2023-05-13T11:58:56.954Z,2.10
2023-05-13T12:01:25.500Z,7.60
2023-05-13T12:04:01.149Z,2.00
2023-05-13T12:06:29.335Z,2.10
2023-05-13T12:08:56.896Z,1.90
2023-05-13T12:11:24.404Z,2.30
2023-05-13T12:13:51.316Z,2.40
2023-05-13T12:16:18.310Z,2.20
2023-05-13T12:18:56.669Z,2.30
2023-05-13T12:21:23.611Z,2.20
2023-05-13T12:23:50.641Z,2.10
2023-05-13T12:26:18.223Z,2.00
2023-05-13T12:28:45.065Z,2.40
2023-05-13T12:31:15.633Z,2.40
2023-05-13T12:33:43.241Z,2.30
2023-05-13T12:36:25.754Z,2.00
2023-05-13T12:39:24.140Z,2.00
2023-05-13T12:41:51.923Z,1.80
2023-05-13T12:44:18.755Z,1.90
2023-05-13T12:46:52.979Z,2.10
2023-05-13T12:49:19.950Z,2.20
2023-05-13T12:51:46.785Z,2.30
2023-05-13T12:54:13.724Z,1.90
2023-05-13T12:56:40.818Z,1.80
2023-05-13T12:59:08.024Z,1.90
2023-05-13T13:01:35.336Z,2.30
2023-05-13T13:04:02.362Z,2.20
2023-05-13T13:06:29.289Z,2.40
2023-05-13T13:08:56.198Z,2.10
2023-05-13T13:11:23.262Z,2.00
2023-05-13T13:13:50.227Z,2.10
2023-05-13T13:16:17.126Z,2.40
2023-05-13T13:18:44.366Z,2.30
2023-05-13T13:21:11.271Z,2.20
2023-05-13T13:23:38.276Z,3.40
2023-05-13T13:26:05.172Z,2.00
2023-05-13T13:28:32.072Z,2.90
2023-05-13T13:31:00.238Z,3.00
2023-05-13T13:33:27.298Z,1.90
2023-05-13T13:35:54.251Z,1.90
2023-05-13T13:38:21.232Z,2.00
2023-05-13T13:40:48.058Z,2.10
2023-05-13T13:43:14.910Z,1.80
2023-05-13T13:45:41.832Z,1.80
2023-05-13T13:48:08.823Z,2.20
2023-05-13T13:50:35.718Z,2.30
2023-05-13T13:53:02.643Z,2.20
2023-05-13T13:55:29.538Z,2.50
2023-05-13T13:57:56.400Z,1.90
2023-05-13T14:00:23.624Z,2.10
2023-05-13T14:02:50.831Z,1.90
2023-05-13T14:05:17.907Z,1.80
2023-05-13T14:07:44.818Z,1.80
2023-05-13T14:10:11.785Z,2.10
2023-05-13T14:12:38.573Z,1.90
2023-05-13T14:15:06.220Z,1.90
2023-05-13T14:17:33.579Z,1.70
2023-05-13T14:20:00.606Z,1.80
2023-05-13T14:22:27.533Z,2.00
2023-05-13T14:24:54.523Z,1.60
2023-05-13T14:27:22.019Z,1.70
2023-05-13T14:29:49.076Z,1.80
2023-05-13T14:32:16.107Z,1.60
2023-05-13T14:34:42.957Z,1.80
2023-05-13T14:37:09.902Z,1.60
2023-05-13T14:39:37.122Z,1.80
2023-05-13T14:42:04.235Z,1.90
2023-05-13T14:44:31.745Z,1.70
2023-05-13T14:46:58.691Z,1.90
2023-05-13T14:49:25.663Z,1.90
2023-05-13T14:51:52.610Z,1.90
2023-05-13T14:54:19.633Z,1.90
2023-05-13T14:56:46.478Z,1.80
2023-05-13T14:59:13.500Z,1.50
2023-05-13T15:01:40.450Z,1.50
2023-05-13T15:04:07.329Z,2.10
2023-05-13T15:06:34.294Z,1.90
2023-05-13T15:09:01.268Z,2.10
2023-05-13T15:11:28.406Z,2.20
2023-05-13T15:13:55.565Z,1.80
2023-05-13T15:16:22.508Z,2.10
2023-05-13T15:18:50.435Z,1.50
2023-05-13T15:21:17.885Z,1.60
2023-05-13T15:23:44.938Z,1.60
2023-05-13T15:26:11.931Z,1.70
2023-05-13T15:28:38.818Z,2.20
2023-05-13T15:31:05.903Z,1.50
2023-05-13T15:33:32.803Z,1.80
2023-05-13T15:36:00.050Z,1.50
2023-05-13T15:38:27.222Z,1.70
2023-05-13T15:40:54.041Z,1.40
2023-05-13T15:43:21.223Z,1.70
2023-05-13T15:45:48.349Z,1.60
2023-05-13T15:48:15.345Z,1.90
2023-05-13T15:50:42.329Z,1.80
2023-05-13T15:53:09.170Z,2.10
2023-05-13T15:55:37.502Z,1.80
2023-05-13T15:58:04.476Z,2.40
2023-05-13T16:00:31.740Z,1.80
2023-05-13T16:02:58.670Z,1.70
2023-05-13T16:05:25.813Z,1.70
2023-05-13T16:07:52.870Z,2.00
2023-05-13T16:10:19.724Z,1.80
2023-05-13T16:12:46.597Z,1.90
2023-05-13T16:15:13.485Z,1.90
2023-05-13T16:17:40.544Z,1.70
2023-05-13T16:20:08.981Z,2.20
2023-05-13T16:22:40.799Z,1.90
2023-05-13T16:25:08.360Z,1.70
2023-05-13T16:27:35.260Z,2.10
2023-05-13T16:30:02.455Z,1.90
2023-05-13T16:32:29.628Z,1.90
2023-05-13T16:34:56.546Z,1.90
2023-05-13T16:37:23.426Z,2.60
2023-05-13T16:39:50.321Z,2.30
2023-05-13T16:42:17.392Z,2.20
2023-05-13T16:44:44.268Z,2.40
2023-05-13T16:47:11.225Z,2.20
2023-05-13T16:49:38.080Z,2.30
2023-05-13T16:52:05.279Z,2.70
2023-05-13T16:54:32.257Z,2.70
2023-05-13T16:56:59.163Z,3.00
2023-05-13T16:59:26.666Z,2.80
2023-05-13T17:01:53.635Z,2.90
2023-05-13T17:04:21.067Z,3.00
2023-05-13T17:06:48.029Z,3.10
2023-05-13T17:09:15.032Z,2.90
2023-05-13T17:11:41.913Z,2.80
2023-05-13T17:14:09.049Z,3.50
2023-05-13T17:16:36.090Z,4.30
2023-05-13T17:19:03.049Z,3.50
2023-05-13T17:21:30.227Z,3.70
2023-05-13T17:23:57.154Z,3.80
2023-05-13T17:26:24.097Z,3.40
2023-05-13T17:28:51.482Z,3.70
2023-05-13T17:31:25.895Z,3.20
2023-05-13T17:33:53.057Z,3.30
2023-05-13T17:36:20.184Z,4.00
2023-05-13T17:38:47.753Z,3.50
2023-05-13T17:41:14.649Z,5.10
2023-05-13T17:43:41.514Z,4.70
2023-05-13T17:46:08.743Z,4.70
2023-05-13T17:48:36.260Z,5.80
2023-05-13T17:51:03.277Z,4.30
2023-05-13T17:53:32.209Z,5.30
2023-05-13T17:56:00.989Z,6.00
2023-05-13T17:58:27.858Z,6.90
2023-05-13T18:00:54.807Z,6.60
2023-05-13T18:03:22.034Z,7.20
2023-05-13T18:05:48.956Z,7.10
2023-05-13T18:08:16.061Z,7.30
2023-05-13T18:10:43.010Z,7.70
2023-05-13T18:13:11.274Z,7.70
2023-05-13T18:15:38.193Z,8.40
2023-05-13T18:18:05.472Z,9.20
2023-05-13T18:20:32.642Z,9.40
2023-05-13T18:22:59.747Z,9.70
2023-05-13T18:25:26.646Z,8.90
2023-05-13T18:27:54.278Z,11.00
2023-05-13T18:30:21.472Z,12.30
2023-05-13T18:32:48.675Z,11.20
2023-05-13T18:35:16.249Z,9.80
2023-05-13T18:37:43.224Z,13.40
2023-05-13T18:40:10.236Z,14.60
2023-05-13T18:42:37.126Z,15.30
2023-05-13T18:45:04.302Z,15.20
2023-05-13T18:47:31.181Z,17.50
2023-05-13T18:49:58.024Z,18.90
2023-05-13T18:52:26.309Z,15.80
2023-05-13T18:54:53.166Z,14.00
2023-05-13T18:57:20.889Z,14.10
2023-05-13T18:59:48.109Z,12.40
2023-05-13T19:02:15.212Z,14.30
2023-05-13T19:04:42.322Z,18.10
2023-05-13T19:07:09.258Z,14.50
2023-05-13T19:09:36.176Z,9.60
2023-05-13T19:12:03.180Z,8.80
2023-05-13T19:14:30.223Z,10.30
2023-05-13T19:16:57.200Z,10.40
2023-05-13T19:19:24.403Z,10.70
2023-05-13T19:21:51.381Z,11.30
2023-05-13T19:24:18.689Z,9.90
2023-05-13T19:26:45.548Z,9.50
2023-05-13T19:29:12.469Z,8.90
2023-05-13T19:31:39.560Z,8.50
2023-05-13T19:34:07.745Z,7.50
2023-05-13T19:36:34.729Z,8.10
2023-05-13T19:39:01.623Z,8.30
2023-05-13T19:41:28.599Z,8.40
2023-05-13T19:43:55.495Z,7.50
2023-05-13T19:46:22.394Z,7.40
2023-05-13T19:48:49.284Z,6.90
2023-05-13T19:51:16.302Z,6.50
2023-05-13T19:53:43.162Z,7.10
2023-05-13T19:56:10.182Z,6.80
2023-05-13T19:58:37.043Z,5.80
2023-05-13T20:01:04.007Z,6.60
2023-05-13T20:03:31.537Z,6.40
2023-05-13T20:05:58.498Z,6.00
2023-05-13T20:08:25.455Z,8.20
2023-05-13T20:10:52.285Z,9.70
2023-05-13T20:13:19.229Z,8.80
2023-05-13T20:15:46.637Z,8.90
2023-05-13T20:18:13.630Z,9.10
2023-05-13T20:20:41.785Z,9.00
2023-05-13T20:23:08.723Z,9.00
2023-05-13T20:25:35.960Z,9.30
2023-05-13T20:28:02.943Z,9.40
2023-05-13T20:30:29.783Z,9.70
2023-05-13T20:32:56.736Z,8.60
2023-05-13T20:35:23.674Z,8.90
2023-05-13T20:37:50.614Z,9.20
2023-05-13T20:40:17.455Z,9.70
2023-05-13T20:42:44.489Z,9.20
2023-05-13T20:45:12.002Z,8.50
2023-05-13T20:47:38.840Z,7.90
2023-05-13T20:50:06.975Z,7.20
2023-05-13T20:52:34.062Z,7.80
2023-05-13T20:55:01.287Z,8.20
2023-05-13T20:57:28.186Z,9.40
2023-05-13T20:59:55.585Z,10.20
2023-05-13T21:02:22.489Z,10.80
2023-05-13T21:04:49.439Z,11.10
2023-05-13T21:07:16.306Z,12.20
2023-05-13T21:09:43.140Z,10.40
2023-05-13T21:12:10.040Z,9.20
2023-05-13T21:14:36.964Z,7.70
2023-05-13T21:17:04.086Z,8.20
2023-05-13T21:19:30.989Z,8.00
2023-05-13T21:21:58.764Z,9.30
2023-05-13T21:24:25.699Z,7.70
2023-05-13T21:26:52.631Z,7.70
2023-05-13T21:29:19.573Z,7.40
2023-05-13T21:31:47.071Z,7.70
2023-05-13T21:34:13.979Z,7.60
2023-05-13T21:36:40.848Z,7.00
2023-05-13T21:39:07.824Z,7.50
2023-05-13T21:41:34.738Z,7.10
2023-05-13T21:44:01.608Z,7.10
2023-05-13T21:46:28.533Z,7.70
2023-05-13T21:48:55.777Z,7.50
2023-05-13T21:51:22.652Z,6.30
2023-05-13T21:53:49.943Z,7.40
2023-05-13T21:56:16.891Z,7.40
2023-05-13T21:58:44.665Z,7.40
2023-05-13T22:01:11.753Z,6.90
2023-05-13T22:03:38.772Z,7.20
2023-05-13T22:06:06.151Z,6.60
2023-05-13T22:08:33.109Z,6.00
2023-05-13T22:11:01.561Z,6.60
2023-05-13T22:13:28.443Z,6.80
2023-05-13T22:15:55.344Z,6.70
2023-05-13T22:18:23.760Z,8.40
2023-05-13T22:20:51.366Z,7.20
2023-05-13T22:26:00.159Z,7.40
2023-05-13T22:28:27.038Z,6.80
2023-05-13T22:30:55.346Z,6.50
2023-05-13T22:33:22.283Z,6.60
2023-05-13T22:35:49.255Z,6.40
2023-05-13T22:38:16.112Z,6.50
2023-05-13T22:40:43.028Z,6.00
2023-05-13T22:43:10.005Z,5.90
2023-05-13T22:45:36.972Z,6.30
2023-05-13T22:48:04.020Z,6.50
2023-05-13T22:50:31.034Z,6.60
2023-05-13T22:52:58.098Z,7.00
2023-05-13T22:55:25.077Z,6.80
2023-05-13T22:57:52.030Z,6.00
2023-05-13T23:00:18.884Z,6.00
2023-05-13T23:02:46.007Z,6.60
2023-05-13T23:05:12.945Z,6.30
2023-05-13T23:07:39.792Z,6.10
2023-05-13T23:10:06.969Z,6.70
2023-05-13T23:12:33.870Z,5.90
2023-05-13T23:15:00.740Z,6.50
2023-05-13T23:17:27.667Z,6.00
2023-05-13T23:19:54.732Z,7.10
2023-05-13T23:22:21.698Z,7.10
2023-05-13T23:24:48.646Z,7.50
2023-05-13T23:27:15.599Z,7.70
2023-05-13T23:29:42.485Z,7.90
2023-05-13T23:32:09.422Z,7.30
2023-05-13T23:34:36.311Z,7.90
2023-05-13T23:37:03.200Z,7.70
2023-05-13T23:39:30.119Z,8.10
2023-05-13T23:41:57.095Z,9.50
2023-05-13T23:44:23.994Z,9.60
2023-05-13T23:46:50.978Z,9.20
2023-05-13T23:49:17.852Z,9.10
2023-05-13T23:51:44.679Z,7.90
2023-05-13T23:54:11.600Z,8.70
2023-05-13T23:56:38.564Z,7.20
2023-05-13T23:59:05.474Z,7.90
